createdAt,value
2023-03-29T00:16:30.149Z,6.76
2023-03-29T00:18:56.807Z,6.78
2023-03-29T00:21:23.297Z,6.78
2023-03-29T00:23:50.144Z,6.80
2023-03-29T00:26:16.621Z,6.83
2023-03-29T00:28:43.182Z,6.87
2023-03-29T00:31:14.042Z,6.88
2023-03-29T00:33:41.342Z,6.91
2023-03-29T00:36:10.283Z,6.98
2023-03-29T00:38:37.369Z,7.00
2023-03-29T00:41:05.031Z,6.98
2023-03-29T00:43:31.485Z,6.98
2023-03-29T00:45:58.034Z,6.91
2023-03-29T00:48:28.926Z,6.88
2023-03-29T00:51:09.964Z,6.90
2023-03-29T00:53:42.333Z,6.93
2023-03-29T00:56:19.505Z,6.95
2023-03-29T00:58:58.397Z,6.93
2023-03-29T01:01:54.601Z,6.92
2023-03-29T01:04:36.910Z,6.93
2023-03-29T01:07:13.477Z,6.95
2023-03-29T01:09:43.881Z,6.96
2023-03-29T01:12:17.104Z,6.99
2023-03-29T01:14:59.321Z,7.03
2023-03-29T01:17:26.021Z,7.03
2023-03-29T01:19:59.181Z,6.99
2023-03-29T01:22:44.671Z,7.03
2023-03-29T01:25:26.072Z,7.03
2023-03-29T01:28:03.001Z,6.97
2023-03-29T01:30:34.540Z,6.97
2023-03-29T01:33:21.104Z,6.97
2023-03-29T01:36:08.123Z,6.93
2023-03-29T01:38:45.110Z,6.93
2023-03-29T01:41:12.394Z,6.90
2023-03-29T01:43:44.525Z,6.83
2023-03-29T01:46:25.089Z,6.85
2023-03-29T01:48:56.835Z,6.86
2023-03-29T01:51:36.378Z,6.87
2023-03-29T01:54:32.978Z,6.97
2023-03-29T01:57:04.601Z,6.88
2023-03-29T01:59:34.614Z,6.96
2023-03-29T02:02:05.490Z,6.93
2023-03-29T02:04:40.626Z,7.01
2023-03-29T02:07:10.473Z,7.06
2023-03-29T02:09:38.572Z,7.08
2023-03-29T02:12:08.214Z,7.09
2023-03-29T02:14:35.484Z,7.09
2023-03-29T02:17:23.200Z,7.13
2023-03-29T02:19:54.907Z,7.01
2023-03-29T02:22:29.759Z,7.00
2023-03-29T02:24:59.527Z,7.05
2023-03-29T02:27:29.916Z,7.07
2023-03-29T02:29:57.770Z,7.10
2023-03-29T02:32:40.269Z,7.15
2023-03-29T02:35:16.602Z,7.11
2023-03-29T02:37:46.453Z,7.03
2023-03-29T02:40:14.886Z,7.09
2023-03-29T02:42:45.031Z,7.15
2023-03-29T02:45:17.174Z,7.15
2023-03-29T02:47:56.030Z,7.18
2023-03-29T02:50:25.997Z,7.22
2023-03-29T02:53:01.766Z,7.29
2023-03-29T02:55:34.589Z,7.31
2023-03-29T02:58:08.660Z,7.30
2023-03-29T03:00:45.194Z,7.23
2023-03-29T03:03:13.466Z,7.26
2023-03-29T03:05:40.264Z,7.30
2023-03-29T03:08:07.454Z,7.33
2023-03-29T03:10:35.359Z,7.35
2023-03-29T03:13:03.247Z,7.38
2023-03-29T03:15:31.175Z,7.38
2023-03-29T03:17:57.853Z,7.37
2023-03-29T03:20:24.384Z,7.38
2023-03-29T03:22:51.314Z,7.31
2023-03-29T03:25:21.245Z,7.31
2023-03-29T03:27:50.152Z,7.29
2023-03-29T03:30:19.337Z,7.31
2023-03-29T03:32:57.673Z,7.35
2023-03-29T03:35:49.784Z,7.34
2023-03-29T03:38:17.239Z,7.33
2023-03-29T03:40:53.707Z,7.35
2023-03-29T03:43:20.170Z,7.36
2023-03-29T03:45:48.265Z,7.40
2023-03-29T03:48:18.268Z,7.38
2023-03-29T03:51:03.510Z,7.38
2023-03-29T03:53:33.782Z,7.39
2023-03-29T03:56:20.672Z,7.36
2023-03-29T03:59:09.602Z,7.33
2023-03-29T04:01:45.714Z,7.33
2023-03-29T04:04:19.735Z,7.37
2023-03-29T04:07:11.450Z,7.40
2023-03-29T04:09:45.346Z,7.39
2023-03-29T04:12:23.321Z,7.41
2023-03-29T04:14:50.276Z,7.42
2023-03-29T04:17:21.295Z,7.42
2023-03-29T04:20:12.796Z,7.43
2023-03-29T04:22:41.086Z,7.40
2023-03-29T04:25:08.457Z,7.41
2023-03-29T04:27:47.834Z,7.45
2023-03-29T04:30:45.791Z,7.47
2023-03-29T04:33:15.337Z,7.44
2023-03-29T04:35:46.888Z,7.47
2023-03-29T04:38:16.780Z,7.44
2023-03-29T04:40:45.567Z,7.43
2023-03-29T04:43:22.536Z,7.46
2023-03-29T04:45:58.459Z,7.47
2023-03-29T04:48:43.952Z,7.52
2023-03-29T04:51:11.545Z,7.54
2023-03-29T04:53:38.898Z,7.55
2023-03-29T04:56:07.956Z,7.56
2023-03-29T04:58:57.643Z,7.58
2023-03-29T05:01:24.254Z,7.59
2023-03-29T05:03:56.944Z,7.60
2023-03-29T05:06:29.210Z,7.63
2023-03-29T05:08:55.707Z,7.63
2023-03-29T05:11:29.501Z,7.65
2023-03-29T05:13:58.518Z,7.60
2023-03-29T05:16:30.005Z,7.59
2023-03-29T05:18:57.997Z,7.61
2023-03-29T05:21:26.310Z,7.59
2023-03-29T05:23:53.282Z,7.61
2023-03-29T05:26:45.230Z,7.64
2023-03-29T05:29:12.573Z,7.63
2023-03-29T05:31:40.925Z,7.63
2023-03-29T05:34:10.740Z,7.63
2023-03-29T05:36:42.903Z,7.61
2023-03-29T05:39:10.883Z,7.60
2023-03-29T05:41:37.885Z,7.61
2023-03-29T05:44:40.322Z,7.63
2023-03-29T05:47:14.866Z,7.67
2023-03-29T05:49:41.305Z,7.64
2023-03-29T05:52:20.712Z,7.60
2023-03-29T05:54:47.437Z,7.63
2023-03-29T05:57:15.142Z,7.65
2023-03-29T05:59:42.330Z,7.69
2023-03-29T06:02:11.618Z,7.72
2023-03-29T06:04:43.433Z,7.75
2023-03-29T06:07:36.104Z,7.76
2023-03-29T06:10:26.005Z,7.75
2023-03-29T06:13:02.447Z,7.72
2023-03-29T06:15:32.907Z,7.77
2023-03-29T06:18:04.563Z,7.77
2023-03-29T06:20:31.699Z,7.78
2023-03-29T06:23:03.852Z,7.82
2023-03-29T06:25:30.382Z,7.83
2023-03-29T06:27:58.419Z,7.84
2023-03-29T06:30:25.073Z,7.89
2023-03-29T06:32:54.632Z,7.91
2023-03-29T06:35:45.783Z,7.93
2023-03-29T06:38:16.518Z,7.95
2023-03-29T06:41:08.370Z,7.95
2023-03-29T06:43:55.111Z,7.97
2023-03-29T06:46:24.316Z,8.02
2023-03-29T06:48:56.270Z,8.03
2023-03-29T06:51:29.006Z,8.08
2023-03-29T06:53:55.825Z,8.10
2023-03-29T06:56:22.319Z,8.11
2023-03-29T06:59:01.059Z,8.14
2023-03-29T07:01:34.660Z,8.19
2023-03-29T07:04:11.239Z,8.22
2023-03-29T07:07:07.751Z,8.25
2023-03-29T07:09:35.825Z,8.29
2023-03-29T07:12:26.320Z,8.33
2023-03-29T07:14:57.267Z,8.35
2023-03-29T07:17:28.756Z,8.38
2023-03-29T07:19:55.362Z,8.41
2023-03-29T07:22:38.499Z,8.42
2023-03-29T07:25:08.620Z,8.45
2023-03-29T07:27:39.456Z,8.49
2023-03-29T07:30:11.191Z,8.52
2023-03-29T07:32:39.933Z,8.58
2023-03-29T07:35:23.581Z,8.62
2023-03-29T07:37:50.550Z,8.65
2023-03-29T07:40:23.039Z,8.68
2023-03-29T07:42:56.639Z,8.67
2023-03-29T07:45:28.377Z,8.72
2023-03-29T07:48:06.178Z,8.74
2023-03-29T07:50:58.896Z,8.72
2023-03-29T07:53:30.887Z,8.77
2023-03-29T07:55:59.325Z,8.83
2023-03-29T07:58:44.431Z,8.82
2023-03-29T08:01:17.156Z,8.88
2023-03-29T08:04:04.813Z,8.93
2023-03-29T08:06:57.244Z,8.98
2023-03-29T08:09:33.123Z,9.01
2023-03-29T08:11:59.682Z,9.06
2023-03-29T08:14:33.216Z,9.12
2023-03-29T08:17:22.287Z,9.21
2023-03-29T08:19:50.693Z,9.27
2023-03-29T08:22:20.541Z,9.30
2023-03-29T08:25:19.768Z,9.35
2023-03-29T08:27:50.621Z,9.44
2023-03-29T08:30:27.926Z,9.49
2023-03-29T08:32:56.348Z,9.52
2023-03-29T08:35:23.136Z,9.51
2023-03-29T08:38:10.442Z,9.55
2023-03-29T08:40:37.142Z,9.63
2023-03-29T08:43:29.728Z,9.72
2023-03-29T08:46:49.665Z,9.78
2023-03-29T08:49:26.173Z,9.82
2023-03-29T08:51:58.423Z,9.85
2023-03-29T08:54:28.307Z,9.98
2023-03-29T08:57:40.719Z,10.03
2023-03-29T09:00:21.627Z,10.11
2023-03-29T09:02:51.741Z,10.15
2023-03-29T09:05:25.169Z,10.18
2023-03-29T09:08:13.452Z,10.19
2023-03-29T09:10:47.091Z,10.14
2023-03-29T09:13:42.299Z,10.21
2023-03-29T09:16:41.137Z,10.28
2023-03-29T09:19:26.778Z,10.29
2023-03-29T09:22:09.421Z,10.28
2023-03-29T09:24:47.057Z,10.28
2023-03-29T09:27:32.266Z,10.34
2023-03-29T09:30:31.915Z,10.45
2023-03-29T09:33:31.469Z,10.47
2023-03-29T09:36:46.258Z,10.51
2023-03-29T09:39:14.748Z,10.62
2023-03-29T09:41:58.397Z,10.76
2023-03-29T09:44:31.908Z,10.81
2023-03-29T09:47:29.995Z,10.84
2023-03-29T09:50:04.993Z,10.89
2023-03-29T09:52:32.590Z,10.89
2023-03-29T09:55:15.942Z,10.89
2023-03-29T09:58:07.273Z,10.90
2023-03-29T10:00:39.810Z,10.94
2023-03-29T10:03:17.098Z,11.01
2023-03-29T10:05:53.274Z,11.05
2023-03-29T10:08:27.195Z,11.08
2023-03-29T10:11:01.532Z,11.13
2023-03-29T10:13:31.582Z,11.18
2023-03-29T10:16:09.654Z,11.24
2023-03-29T10:18:41.786Z,11.32
2023-03-29T10:21:13.007Z,11.28
2023-03-29T10:23:39.431Z,11.31
2023-03-29T10:26:17.792Z,11.36
2023-03-29T10:28:44.681Z,11.35
2023-03-29T10:31:19.161Z,11.36
2023-03-29T10:33:52.348Z,11.37
2023-03-29T10:36:19.757Z,11.34
2023-03-29T10:38:46.542Z,11.37
2023-03-29T10:41:17.152Z,11.33
2023-03-29T10:43:49.202Z,11.35
2023-03-29T10:46:33.630Z,11.30
2023-03-29T10:49:09.922Z,11.34
2023-03-29T10:51:37.460Z,11.37
2023-03-29T10:54:05.226Z,11.33
2023-03-29T10:57:04.847Z,11.36
2023-03-29T11:00:07.011Z,11.37
2023-03-29T11:02:39.650Z,11.43
2023-03-29T11:05:32.662Z,11.44
2023-03-29T11:08:05.198Z,11.52
2023-03-29T11:10:45.230Z,11.62
2023-03-29T11:13:30.237Z,11.69
2023-03-29T11:16:16.854Z,11.69
2023-03-29T11:19:03.667Z,11.70
2023-03-29T11:21:58.979Z,11.73
2023-03-29T11:24:54.781Z,11.74
2023-03-29T11:27:41.660Z,11.68
2023-03-29T11:30:15.578Z,11.65
2023-03-29T11:32:54.560Z,11.60
2023-03-29T11:35:58.417Z,11.61
2023-03-29T11:38:57.058Z,11.55
2023-03-29T11:41:30.199Z,11.56
2023-03-29T11:44:17.625Z,11.64
2023-03-29T11:46:46.712Z,11.73
2023-03-29T11:49:25.084Z,11.76
2023-03-29T11:52:14.379Z,11.83
2023-03-29T11:55:03.500Z,11.92
2023-03-29T11:58:01.045Z,11.88
2023-03-29T12:00:32.899Z,11.90
2023-03-29T12:03:13.344Z,11.92
2023-03-29T12:05:43.045Z,11.88
2023-03-29T12:08:28.608Z,11.92
2023-03-29T12:11:07.907Z,11.95
2023-03-29T12:13:43.858Z,11.94
2023-03-29T12:16:20.539Z,11.99
2023-03-29T12:18:51.294Z,11.93
2023-03-29T12:21:23.130Z,11.93
2023-03-29T12:23:52.205Z,11.84
2023-03-29T12:26:37.937Z,11.85
2023-03-29T12:29:36.293Z,11.85
2023-03-29T12:32:19.398Z,11.86
2023-03-29T12:35:18.006Z,11.77
2023-03-29T12:38:20.854Z,11.81
2023-03-29T12:41:24.283Z,11.86
2023-03-29T12:44:16.442Z,11.92
2023-03-29T12:46:59.860Z,12.00
2023-03-29T12:49:35.282Z,12.06
2023-03-29T12:52:23.217Z,12.10
2023-03-29T12:54:54.894Z,12.07
2023-03-29T12:57:27.836Z,12.05
2023-03-29T12:59:54.943Z,12.03
2023-03-29T13:02:21.828Z,12.01
2023-03-29T13:04:52.937Z,11.99
2023-03-29T13:07:22.546Z,12.00
2023-03-29T13:10:06.907Z,12.04
2023-03-29T13:12:45.788Z,12.10
2023-03-29T13:15:16.633Z,12.08
2023-03-29T13:17:49.242Z,12.09
2023-03-29T13:20:40.663Z,12.16
2023-03-29T13:23:22.335Z,12.16
2023-03-29T13:26:17.393Z,12.24
2023-03-29T13:29:15.352Z,12.27
2023-03-29T13:31:51.811Z,12.29
2023-03-29T13:34:46.461Z,12.29
2023-03-29T13:37:41.157Z,12.27
2023-03-29T13:40:29.542Z,12.23
2023-03-29T13:43:08.012Z,12.25
2023-03-29T13:45:36.483Z,12.28
2023-03-29T13:48:19.837Z,12.29
2023-03-29T13:50:57.977Z,12.30
2023-03-29T13:53:57.158Z,12.33
2023-03-29T13:56:28.550Z,12.31
2023-03-29T13:59:05.597Z,12.30
2023-03-29T14:01:57.226Z,12.34
2023-03-29T14:04:27.568Z,12.40
2023-03-29T14:06:57.952Z,12.40
2023-03-29T14:09:31.586Z,12.46
2023-03-29T14:12:00.705Z,12.51
2023-03-29T14:14:30.122Z,12.57
2023-03-29T14:16:57.095Z,12.61
2023-03-29T14:19:34.372Z,12.58
2023-03-29T14:22:02.905Z,12.58
2023-03-29T14:24:40.284Z,12.60
2023-03-29T14:27:10.198Z,12.67
2023-03-29T14:29:37.153Z,12.66
2023-03-29T14:32:30.815Z,12.66
2023-03-29T14:34:57.901Z,12.67
2023-03-29T14:37:29.727Z,12.69
2023-03-29T14:39:58.735Z,12.72
2023-03-29T14:42:27.881Z,12.74
2023-03-29T14:45:03.909Z,12.72
2023-03-29T14:47:31.972Z,12.72
2023-03-29T14:50:00.890Z,12.74
2023-03-29T14:52:31.915Z,12.76
2023-03-29T14:55:01.752Z,12.73
2023-03-29T14:57:34.207Z,12.74
2023-03-29T15:00:16.243Z,12.76
2023-03-29T15:03:04.150Z,12.73
2023-03-29T15:05:39.452Z,12.74
2023-03-29T15:08:12.501Z,12.77
2023-03-29T15:10:41.787Z,12.82
2023-03-29T15:13:19.547Z,12.86
2023-03-29T15:15:46.477Z,12.90
2023-03-29T15:18:16.389Z,12.92
2023-03-29T15:20:44.882Z,12.94
2023-03-29T15:23:14.310Z,12.95
2023-03-29T15:26:10.510Z,12.99
2023-03-29T15:28:46.773Z,13.03
2023-03-29T15:31:17.649Z,13.04
2023-03-29T15:33:45.537Z,13.01
2023-03-29T15:36:13.996Z,13.02
2023-03-29T15:38:45.017Z,13.03
2023-03-29T15:41:14.064Z,13.00
2023-03-29T15:43:41.484Z,13.03
2023-03-29T15:46:10.360Z,13.06
2023-03-29T15:48:37.286Z,13.06
2023-03-29T15:51:06.365Z,13.06
2023-03-29T15:53:33.546Z,13.06
2023-03-29T15:56:02.529Z,13.04
2023-03-29T15:58:31.708Z,13.02
2023-03-29T16:01:19.029Z,13.02
2023-03-29T16:03:47.654Z,13.00
2023-03-29T16:06:15.095Z,13.02
2023-03-29T16:08:41.781Z,13.03
2023-03-29T16:11:08.194Z,13.06
2023-03-29T16:13:34.858Z,13.05
2023-03-29T16:16:01.870Z,13.06
2023-03-29T16:18:28.589Z,13.05
2023-03-29T16:20:55.268Z,13.09
2023-03-29T16:23:21.953Z,13.09
2023-03-29T16:25:48.430Z,13.07
2023-03-29T16:28:14.894Z,13.11
2023-03-29T16:30:41.632Z,13.13
2023-03-29T16:33:08.564Z,13.13
2023-03-29T16:35:40.013Z,13.18
2023-03-29T16:38:07.118Z,13.25
2023-03-29T16:40:34.182Z,13.35
2023-03-29T16:43:01.585Z,13.36
2023-03-29T16:45:28.051Z,13.32
2023-03-29T16:47:55.584Z,13.32
2023-03-29T16:50:22.195Z,13.32
2023-03-29T16:52:49.084Z,13.31
2023-03-29T16:55:18.792Z,13.30
2023-03-29T16:57:46.761Z,13.30
2023-03-29T17:00:16.000Z,13.27
2023-03-29T17:02:43.625Z,13.27
2023-03-29T17:05:11.647Z,13.27
2023-03-29T17:07:43.003Z,13.28
2023-03-29T17:10:11.568Z,13.28
2023-03-29T17:12:38.345Z,13.23
2023-03-29T17:15:06.451Z,13.22
2023-03-29T17:17:34.233Z,13.20
2023-03-29T17:20:00.799Z,13.23
2023-03-29T17:22:27.197Z,13.21
2023-03-29T17:24:53.665Z,13.21
2023-03-29T17:27:20.924Z,13.19
2023-03-29T17:29:47.564Z,13.22
2023-03-29T17:32:14.066Z,13.21
2023-03-29T17:34:40.818Z,13.19
2023-03-29T17:37:07.579Z,13.22
2023-03-29T17:39:37.272Z,13.20
2023-03-29T17:42:05.066Z,13.20
2023-03-29T17:44:33.149Z,13.23
2023-03-29T17:47:00.786Z,13.24
2023-03-29T17:49:27.706Z,13.26
2023-03-29T17:51:54.326Z,13.23
2023-03-29T17:54:20.809Z,13.21
2023-03-29T17:56:47.255Z,13.21
2023-03-29T17:59:13.700Z,13.24
2023-03-29T18:01:40.337Z,13.21
2023-03-29T18:04:07.436Z,13.20
2023-03-29T18:06:33.954Z,13.18
2023-03-29T18:09:01.506Z,13.19
2023-03-29T18:11:28.417Z,13.18
2023-03-29T18:13:58.900Z,13.19
2023-03-29T18:16:25.565Z,13.18
2023-03-29T18:18:52.199Z,13.20
2023-03-29T18:21:19.139Z,13.17
2023-03-29T18:23:47.931Z,13.15
2023-03-29T18:26:17.667Z,13.15
2023-03-29T18:28:48.492Z,13.12
2023-03-29T18:31:15.795Z,13.08
2023-03-29T18:33:42.529Z,13.08
2023-03-29T18:36:12.607Z,13.07
2023-03-29T18:38:43.024Z,13.04
2023-03-29T18:41:12.052Z,13.01
2023-03-29T18:43:39.692Z,12.98
2023-03-29T18:46:07.717Z,13.02
2023-03-29T18:48:41.709Z,13.04
2023-03-29T18:51:10.036Z,13.05
2023-03-29T18:53:38.581Z,13.01
2023-03-29T18:56:06.425Z,12.98
2023-03-29T18:58:32.976Z,12.97
2023-03-29T19:01:05.109Z,12.99
2023-03-29T19:03:34.892Z,13.00
2023-03-29T19:06:02.680Z,12.99
2023-03-29T19:08:29.304Z,12.97
2023-03-29T19:11:03.750Z,12.98
2023-03-29T19:13:30.197Z,12.98
2023-03-29T19:15:56.727Z,13.00
2023-03-29T19:18:23.252Z,12.96
2023-03-29T19:20:51.182Z,12.96
2023-03-29T19:23:18.191Z,12.94
2023-03-29T19:25:54.687Z,12.98
2023-03-29T19:28:21.837Z,13.01
2023-03-29T19:30:48.535Z,13.00
2023-03-29T19:33:15.081Z,12.99
2023-03-29T19:35:42.013Z,12.98
2023-03-29T19:38:08.718Z,13.00
2023-03-29T19:40:36.418Z,13.02
2023-03-29T19:43:03.447Z,13.03
2023-03-29T19:45:30.003Z,13.03
2023-03-29T19:47:58.208Z,13.04
2023-03-29T19:50:26.281Z,13.00
2023-03-29T19:52:57.076Z,12.94
2023-03-29T19:55:23.505Z,12.97
2023-03-29T19:57:49.868Z,12.98
2023-03-29T20:00:17.221Z,12.99
2023-03-29T20:02:43.894Z,12.99
2023-03-29T20:05:10.327Z,12.98
2023-03-29T20:07:36.733Z,12.98
2023-03-29T20:10:03.686Z,12.96
2023-03-29T20:12:30.153Z,12.94
2023-03-29T20:14:56.585Z,12.95
2023-03-29T20:17:23.300Z,12.94
2023-03-29T20:19:50.167Z,12.95
2023-03-29T20:22:16.581Z,12.95
2023-03-29T20:24:42.993Z,12.94
2023-03-29T20:27:09.728Z,12.95
2023-03-29T20:29:36.392Z,12.95
2023-03-29T20:32:03.074Z,12.96
2023-03-29T20:34:29.802Z,12.97
2023-03-29T20:37:00.567Z,12.97
2023-03-29T20:39:28.253Z,12.97
2023-03-29T20:41:54.836Z,13.00
2023-03-29T20:44:26.053Z,13.02
2023-03-29T20:47:03.312Z,13.03
2023-03-29T20:49:37.709Z,13.00
2023-03-29T20:52:12.754Z,13.03
2023-03-29T20:54:39.649Z,13.06
2023-03-29T20:57:16.232Z,13.05
2023-03-29T20:59:44.062Z,13.08
2023-03-29T21:02:17.120Z,13.10
2023-03-29T21:04:44.101Z,13.10
2023-03-29T21:07:11.082Z,13.06
2023-03-29T21:09:37.743Z,13.04
2023-03-29T21:12:04.249Z,13.07
2023-03-29T21:14:33.242Z,13.08
2023-03-29T21:16:59.761Z,13.14
2023-03-29T21:19:26.308Z,13.17
2023-03-29T21:21:54.983Z,13.16
2023-03-29T21:24:21.843Z,13.13
2023-03-29T21:26:48.291Z,13.16
2023-03-29T21:29:14.752Z,13.06
2023-03-29T21:31:41.454Z,13.06
2023-03-29T21:34:07.994Z,13.07
2023-03-29T21:36:34.435Z,13.07
2023-03-29T21:39:00.847Z,13.07
2023-03-29T21:41:27.493Z,13.09
2023-03-29T21:43:53.912Z,13.08
2023-03-29T21:46:20.461Z,13.05
2023-03-29T21:48:46.945Z,13.04
2023-03-29T21:51:13.412Z,13.05
2023-03-29T21:53:39.912Z,13.05
2023-03-29T21:56:08.219Z,13.03
2023-03-29T21:58:34.720Z,13.02
2023-03-29T22:01:03.682Z,13.00
2023-03-29T22:03:31.346Z,12.99
2023-03-29T22:06:00.536Z,12.95
2023-03-29T22:08:27.129Z,12.96
2023-03-29T22:10:55.462Z,13.01
2023-03-29T22:13:23.914Z,13.03
2023-03-29T22:16:03.568Z,13.05
2023-03-29T22:18:46.761Z,13.04
2023-03-29T22:21:17.347Z,13.02
2023-03-29T22:23:47.194Z,13.04
2023-03-29T22:26:15.978Z,13.03
2023-03-29T22:28:43.277Z,13.00
2023-03-29T22:31:13.720Z,13.01
2023-03-29T22:33:41.688Z,12.99
2023-03-29T22:36:19.650Z,13.01
2023-03-29T22:38:47.380Z,13.02
2023-03-29T22:41:15.223Z,13.00
2023-03-29T22:43:41.851Z,13.01
2023-03-29T22:46:11.068Z,13.01
2023-03-29T22:48:37.626Z,13.02
2023-03-29T22:51:05.468Z,13.02
2023-03-29T22:53:33.301Z,13.01
2023-03-29T22:55:59.742Z,13.03
2023-03-29T22:58:26.713Z,13.03
2023-03-29T23:00:53.133Z,13.04
2023-03-29T23:03:19.627Z,13.05
2023-03-29T23:05:54.825Z,12.99
2023-03-29T23:08:22.230Z,13.01
2023-03-29T23:10:48.702Z,13.02
2023-03-29T23:13:19.937Z,13.00
2023-03-29T23:15:48.675Z,13.01
2023-03-29T23:18:18.088Z,13.01
2023-03-29T23:20:47.083Z,12.99
2023-03-29T23:23:15.342Z,12.96
2023-03-29T23:25:46.512Z,12.98
2023-03-29T23:28:14.630Z,13.04
2023-03-29T23:30:41.006Z,13.02
2023-03-29T23:33:07.507Z,13.03
2023-03-29T23:35:33.958Z,12.93
2023-03-29T23:38:00.747Z,12.91
2023-03-29T23:40:27.886Z,12.96
2023-03-29T23:42:59.378Z,13.02
2023-03-29T23:45:27.787Z,13.04
2023-03-29T23:47:54.240Z,13.04
2023-03-29T23:50:22.543Z,13.03
2023-03-29T23:52:49.577Z,13.00
2023-03-29T23:55:16.102Z,13.03
2023-03-29T23:57:42.934Z,13.00
